createdAt,value
2019-02-23T00:00:40.449Z,86.60
2019-02-23T00:03:06.656Z,86.40
2019-02-23T00:05:32.800Z,86.40
2019-02-23T00:07:59.003Z,86.10
2019-02-23T00:10:25.141Z,85.90
2019-02-23T00:12:51.428Z,85.90
2019-02-23T00:15:17.559Z,85.90
2019-02-23T00:17:43.679Z,86.30
2019-02-23T00:20:09.900Z,86.70
2019-02-23T00:22:36.070Z,86.80
2019-02-23T00:25:02.172Z,86.80
2019-02-23T00:27:28.312Z,86.50
2019-02-23T00:29:54.545Z,85.90
2019-02-23T00:32:20.656Z,86.00
2019-02-23T00:34:46.819Z,85.90
2019-02-23T00:37:12.932Z,86.30
2019-02-23T00:39:39.091Z,85.60
2019-02-23T00:42:05.210Z,85.90
2019-02-23T00:44:31.325Z,85.90
2019-02-23T00:46:57.525Z,86.00
2019-02-23T00:49:23.768Z,86.50
2019-02-23T00:51:51.802Z,86.90
2019-02-23T00:54:17.910Z,87.00
2019-02-23T00:56:44.051Z,87.90
2019-02-23T00:59:10.183Z,88.00
2019-02-23T01:01:36.313Z,88.00
2019-02-23T01:04:02.421Z,87.50
2019-02-23T01:06:28.550Z,86.90
2019-02-23T01:08:54.656Z,86.60
2019-02-23T01:11:20.889Z,87.30
2019-02-23T01:13:47.145Z,87.50
2019-02-23T01:16:13.267Z,87.30
2019-02-23T01:18:39.476Z,87.40
2019-02-23T01:21:05.719Z,87.30
2019-02-23T01:23:31.952Z,87.60
2019-02-23T01:26:17.921Z,87.10
2019-02-23T01:28:44.036Z,87.10
2019-02-23T01:31:10.264Z,86.70
2019-02-23T01:33:36.523Z,86.90
2019-02-23T01:36:02.774Z,87.10
2019-02-23T01:38:28.937Z,87.10
2019-02-23T01:40:55.043Z,87.30
2019-02-23T01:43:21.154Z,87.30
2019-02-23T01:45:47.297Z,87.50
2019-02-23T01:48:13.518Z,87.30
2019-02-23T01:50:39.740Z,87.30
2019-02-23T01:53:05.880Z,87.20
2019-02-23T01:55:32.008Z,87.30
2019-02-23T01:57:58.217Z,87.40
2019-02-23T02:00:25.071Z,87.20
2019-02-23T02:02:51.228Z,87.10
2019-02-23T02:05:17.459Z,87.20
2019-02-23T02:07:43.602Z,87.30
2019-02-23T02:10:10.718Z,87.50
2019-02-23T02:12:37.082Z,88.30
2019-02-23T02:15:04.803Z,88.60
2019-02-23T02:17:31.064Z,88.70
2019-02-23T02:19:57.187Z,88.20
2019-02-23T02:22:23.460Z,88.20
2019-02-23T02:24:49.605Z,88.20
2019-02-23T02:27:15.761Z,88.10
2019-02-23T02:29:41.879Z,88.00
2019-02-23T02:32:08.032Z,88.50
2019-02-23T02:34:34.237Z,88.60
2019-02-23T02:37:00.374Z,88.50
2019-02-23T02:39:26.504Z,88.50
2019-02-23T02:41:52.633Z,88.60
2019-02-23T02:44:18.745Z,88.60
2019-02-23T02:46:44.962Z,88.40
2019-02-23T02:49:11.199Z,88.20
2019-02-23T02:51:37.348Z,88.30
2019-02-23T02:54:03.562Z,88.30
2019-02-23T02:56:29.677Z,88.40
2019-02-23T02:58:55.824Z,88.60
2019-02-23T03:01:21.938Z,88.70
2019-02-23T03:03:48.076Z,88.90
2019-02-23T03:06:14.213Z,89.00
2019-02-23T03:08:40.336Z,89.10
2019-02-23T03:11:06.629Z,89.20
2019-02-23T03:13:32.876Z,88.90
2019-02-23T03:15:59.118Z,88.80
2019-02-23T03:18:25.255Z,88.30
2019-02-23T03:20:51.389Z,88.40
2019-02-23T03:23:17.635Z,88.70
2019-02-23T03:25:43.785Z,88.90
2019-02-23T03:28:09.903Z,88.90
2019-02-23T03:30:36.049Z,89.00
2019-02-23T03:33:02.301Z,89.00
2019-02-23T03:35:28.451Z,89.00
2019-02-23T03:37:54.611Z,88.80
2019-02-23T03:40:20.754Z,88.90
2019-02-23T03:42:46.850Z,89.00
2019-02-23T03:45:12.985Z,88.80
2019-02-23T03:47:39.124Z,88.80
2019-02-23T03:50:05.846Z,89.00
2019-02-23T03:52:32.154Z,89.10
2019-02-23T03:54:58.371Z,89.10
2019-02-23T03:57:24.588Z,89.10
2019-02-23T03:59:50.824Z,89.00
2019-02-23T04:02:16.973Z,89.00
2019-02-23T04:04:43.177Z,88.80
2019-02-23T04:07:09.344Z,88.60
2019-02-23T04:09:35.468Z,88.80
2019-02-23T04:12:01.689Z,89.10
2019-02-23T04:14:27.868Z,88.90
2019-02-23T04:16:53.970Z,88.70
2019-02-23T04:19:20.094Z,88.60
2019-02-23T04:21:46.255Z,88.40
2019-02-23T04:24:12.364Z,88.30
2019-02-23T04:26:38.483Z,88.70
2019-02-23T04:29:04.632Z,88.50
2019-02-23T04:31:30.744Z,88.60
2019-02-23T04:33:56.975Z,88.40
2019-02-23T04:36:23.077Z,88.80
2019-02-23T04:38:49.182Z,88.60
2019-02-23T04:41:15.329Z,88.70
2019-02-23T04:43:44.114Z,89.40
2019-02-23T04:46:09.504Z,88.50
2019-02-23T04:48:35.624Z,88.30
2019-02-23T04:51:13.451Z,88.20
2019-02-23T04:53:29.822Z,88.10
2019-02-23T04:55:56.026Z,88.30
2019-02-23T04:58:22.179Z,88.30
2019-02-23T05:00:48.368Z,88.40
2019-02-23T05:03:14.567Z,88.50
2019-02-23T05:05:40.689Z,88.50
2019-02-23T05:08:06.850Z,88.40
2019-02-23T05:10:33.072Z,88.20
2019-02-23T05:12:59.209Z,87.80
2019-02-23T05:15:25.493Z,87.90
2019-02-23T05:17:51.601Z,88.00
2019-02-23T05:20:17.713Z,88.00
2019-02-23T05:22:43.867Z,87.90
2019-02-23T05:25:10.004Z,87.50
2019-02-23T05:27:36.136Z,87.30
2019-02-23T05:30:02.581Z,87.40
2019-02-23T05:32:28.787Z,87.20
2019-02-23T05:34:55.030Z,87.00
2019-02-23T05:37:21.302Z,86.50
2019-02-23T05:39:47.542Z,86.60
2019-02-23T05:42:13.773Z,86.60
2019-02-23T05:44:40.024Z,86.70
2019-02-23T05:47:06.250Z,86.70
2019-02-23T05:49:32.423Z,86.90
2019-02-23T05:51:58.552Z,87.30
2019-02-23T05:54:24.716Z,87.50
2019-02-23T05:56:50.936Z,87.70
2019-02-23T05:59:17.230Z,87.90
2019-02-23T06:01:43.502Z,88.00
2019-02-23T06:04:09.604Z,88.10
2019-02-23T06:06:35.738Z,88.80
2019-02-23T06:09:02.254Z,88.20
2019-02-23T06:11:28.487Z,88.10
2019-02-23T06:13:54.734Z,87.70
2019-02-23T06:16:20.863Z,87.30
2019-02-23T06:18:48.217Z,87.30
2019-02-23T06:21:14.430Z,87.40
2019-02-23T06:23:40.552Z,87.90
2019-02-23T06:26:06.823Z,88.20
2019-02-23T06:28:32.939Z,88.50
2019-02-23T06:30:59.371Z,88.10
2019-02-23T06:33:25.521Z,88.20
2019-02-23T06:35:51.724Z,88.50
2019-02-23T06:38:17.884Z,88.60
2019-02-23T06:40:44.163Z,88.60
2019-02-23T06:43:10.336Z,89.00
2019-02-23T06:45:36.565Z,88.20
2019-02-23T06:48:04.814Z,87.80
2019-02-23T06:50:35.742Z,87.60
2019-02-23T06:53:02.023Z,87.10
2019-02-23T06:55:28.145Z,86.30
2019-02-23T06:57:54.413Z,85.50
2019-02-23T07:00:20.601Z,85.70
2019-02-23T07:02:46.869Z,85.90
2019-02-23T07:05:13.230Z,84.10
2019-02-23T07:07:39.440Z,83.80
2019-02-23T07:10:07.391Z,85.00
2019-02-23T07:12:33.671Z,84.60
2019-02-23T07:14:59.812Z,83.60
2019-02-23T07:17:26.103Z,83.90
2019-02-23T07:19:52.207Z,82.80
2019-02-23T07:22:18.468Z,83.10
2019-02-23T07:24:44.625Z,83.90
2019-02-23T07:27:10.743Z,83.60
2019-02-23T07:29:36.889Z,83.00
2019-02-23T07:32:03.206Z,84.10
2019-02-23T07:34:29.402Z,83.10
2019-02-23T07:36:55.496Z,80.00
2019-02-23T07:39:21.624Z,80.00
2019-02-23T07:41:47.869Z,79.70
2019-02-23T07:44:14.054Z,79.80
2019-02-23T07:46:40.177Z,79.80
2019-02-23T07:49:06.295Z,80.50
2019-02-23T07:51:32.463Z,79.60
2019-02-23T07:53:58.799Z,79.50
2019-02-23T07:56:25.013Z,79.40
2019-02-23T07:58:51.260Z,77.50
2019-02-23T08:01:17.369Z,76.10
2019-02-23T08:03:43.567Z,76.90
2019-02-23T08:06:09.663Z,74.80
2019-02-23T08:08:35.780Z,76.40
2019-02-23T08:11:01.997Z,77.00
2019-02-23T08:13:28.104Z,75.20
2019-02-23T08:15:54.220Z,75.20
2019-02-23T08:18:20.475Z,75.10
2019-02-23T08:20:46.575Z,76.70
2019-02-23T08:23:12.801Z,78.30
2019-02-23T08:25:39.118Z,77.90
2019-02-23T08:28:42.730Z,76.00
2019-02-23T08:31:08.878Z,77.40
2019-02-23T08:33:35.027Z,74.10
2019-02-23T08:36:01.152Z,74.30
2019-02-23T08:38:27.276Z,73.40
2019-02-23T08:40:53.416Z,73.60
2019-02-23T08:43:24.600Z,75.60
2019-02-23T08:45:50.926Z,77.30
2019-02-23T08:48:17.199Z,83.90
2019-02-23T08:50:43.460Z,78.00
2019-02-23T08:53:09.763Z,72.60
2019-02-23T08:55:36.080Z,72.90
2019-02-23T08:58:02.337Z,71.40
2019-02-23T09:00:28.888Z,72.80
2019-02-23T09:02:55.149Z,69.10
2019-02-23T09:05:21.453Z,70.60
2019-02-23T09:07:47.737Z,71.70
2019-02-23T09:10:14.332Z,71.40
2019-02-23T09:12:40.571Z,70.10
2019-02-23T09:15:08.024Z,72.40
2019-02-23T09:17:34.413Z,70.80
2019-02-23T09:20:00.661Z,71.40
2019-02-23T09:22:27.015Z,70.90
2019-02-23T09:24:53.301Z,68.10
2019-02-23T09:27:19.551Z,69.00
2019-02-23T09:29:45.851Z,69.00
2019-02-23T09:32:12.095Z,68.60
2019-02-23T09:34:38.353Z,70.90
2019-02-23T09:37:04.757Z,71.80
2019-02-23T09:39:31.032Z,68.90
2019-02-23T09:42:07.021Z,67.10
2019-02-23T09:44:25.405Z,69.70
2019-02-23T09:46:51.631Z,69.10
2019-02-23T09:49:17.922Z,66.00
2019-02-23T09:51:44.176Z,62.30
2019-02-23T09:54:10.423Z,63.80
2019-02-23T09:56:36.719Z,66.80
2019-02-23T09:59:02.959Z,67.90
2019-02-23T10:01:29.213Z,62.60
2019-02-23T10:03:55.516Z,63.50
2019-02-23T10:06:21.771Z,63.70
2019-02-23T10:08:48.033Z,65.00
2019-02-23T10:11:14.319Z,64.10
2019-02-23T10:13:40.574Z,63.50
2019-02-23T10:16:06.965Z,59.00
2019-02-23T10:18:33.243Z,59.30
2019-02-23T10:20:59.529Z,61.80
2019-02-23T10:23:25.776Z,57.30
2019-02-23T10:25:52.038Z,56.30
2019-02-23T10:28:18.302Z,59.00
2019-02-23T10:30:44.563Z,59.60
2019-02-23T10:33:10.825Z,55.10
2019-02-23T10:35:37.116Z,54.10
2019-02-23T10:38:03.475Z,51.50
2019-02-23T10:40:29.752Z,54.70
2019-02-23T10:42:56.016Z,57.00
2019-02-23T10:45:22.284Z,53.30
2019-02-23T10:47:50.193Z,52.90
2019-02-23T10:50:16.848Z,56.20
2019-02-23T10:52:43.308Z,54.30
2019-02-23T10:55:13.680Z,52.30
2019-02-23T10:57:40.030Z,52.20
2019-02-23T11:00:24.507Z,50.80
2019-02-23T11:02:50.859Z,50.00
2019-02-23T11:05:18.409Z,48.30
2019-02-23T11:07:44.788Z,49.00
2019-02-23T11:10:11.241Z,49.40
2019-02-23T11:12:37.623Z,49.40
2019-02-23T11:15:07.196Z,50.00
2019-02-23T11:17:33.439Z,47.70
2019-02-23T11:19:59.824Z,45.30
2019-02-23T11:22:26.221Z,47.60
2019-02-23T11:24:52.466Z,49.10
2019-02-23T11:27:18.844Z,45.20
2019-02-23T11:29:45.115Z,47.50
2019-02-23T11:32:11.364Z,45.90
2019-02-23T11:34:37.879Z,43.50
2019-02-23T11:37:04.138Z,45.00
2019-02-23T11:39:50.283Z,45.70
2019-02-23T11:42:16.538Z,42.70
2019-02-23T11:44:43.198Z,44.90
2019-02-23T11:47:09.542Z,42.40
2019-02-23T11:49:35.784Z,41.00
2019-02-23T11:52:02.164Z,43.30
2019-02-23T11:54:28.521Z,41.60
2019-02-23T11:56:54.779Z,41.30
2019-02-23T11:59:21.164Z,43.20
2019-02-23T12:01:47.441Z,41.60
2019-02-23T12:04:13.791Z,42.80
2019-02-23T12:06:40.053Z,39.40
2019-02-23T12:09:06.731Z,42.00
2019-02-23T12:11:32.983Z,36.80
2019-02-23T12:13:59.276Z,40.70
2019-02-23T12:16:25.546Z,41.60
2019-02-23T12:18:51.796Z,41.80
2019-02-23T12:21:18.071Z,40.20
2019-02-23T12:23:44.695Z,38.40
2019-02-23T12:26:10.949Z,38.70
2019-02-23T12:28:37.331Z,38.30
2019-02-23T12:31:03.589Z,37.50
2019-02-23T12:33:29.852Z,41.10
2019-02-23T12:35:56.155Z,39.40
2019-02-23T12:38:22.432Z,38.60
2019-02-23T12:40:48.693Z,39.60
2019-02-23T12:43:14.979Z,42.30
2019-02-23T12:45:41.241Z,41.30
2019-02-23T12:48:07.616Z,38.80
2019-02-23T12:50:33.887Z,39.90
2019-02-23T12:53:00.167Z,37.50
2019-02-23T12:55:26.453Z,37.40
2019-02-23T12:57:52.700Z,38.50
2019-02-23T13:00:19.227Z,39.80
2019-02-23T13:02:45.699Z,35.70
2019-02-23T13:05:12.461Z,37.10
2019-02-23T13:07:38.830Z,38.30
2019-02-23T13:10:11.406Z,39.60
2019-02-23T13:12:41.787Z,38.70
2019-02-23T13:15:24.159Z,39.40
2019-02-23T13:18:09.291Z,38.90
2019-02-23T13:20:51.363Z,35.50
2019-02-23T13:23:24.188Z,38.00
2019-02-23T13:26:06.542Z,36.70
2019-02-23T13:29:11.608Z,36.00
2019-02-23T13:31:53.607Z,38.60
2019-02-23T13:34:32.828Z,36.70
2019-02-23T13:37:25.782Z,37.10
2019-02-23T13:40:01.397Z,39.10
2019-02-23T13:42:55.422Z,39.50
2019-02-23T13:45:37.756Z,39.90
2019-02-23T13:48:21.214Z,40.20
2019-02-23T13:50:57.632Z,38.10
2019-02-23T13:53:56.213Z,39.90
2019-02-23T13:56:39.144Z,39.20
2019-02-23T13:59:29.365Z,39.80
2019-02-23T14:02:08.367Z,39.30
2019-02-23T14:04:50.483Z,39.70
2019-02-23T14:07:37.226Z,37.20
2019-02-23T14:10:12.846Z,38.60
2019-02-23T14:13:09.848Z,37.60
2019-02-23T14:15:42.536Z,37.80
2019-02-23T14:18:30.931Z,37.00
2019-02-23T14:21:16.322Z,38.50
2019-02-23T14:24:02.982Z,39.40
2019-02-23T14:26:54.522Z,36.90
2019-02-23T14:29:33.941Z,38.60
2019-02-23T14:32:04.002Z,36.40
2019-02-23T14:34:57.920Z,36.10
2019-02-23T14:37:34.220Z,35.70
2019-02-23T14:40:25.684Z,36.80
2019-02-23T14:43:13.848Z,37.20
2019-02-23T14:46:01.888Z,37.00
2019-02-23T14:48:51.997Z,31.40
2019-02-23T14:51:38.798Z,35.40
2019-02-23T14:54:20.391Z,31.40
2019-02-23T14:57:05.396Z,34.60
2019-02-23T14:59:38.439Z,31.20
2019-02-23T15:02:23.684Z,29.00
2019-02-23T15:05:08.858Z,26.60
2019-02-23T15:08:03.267Z,27.90
2019-02-23T15:10:47.940Z,29.40
2019-02-23T15:13:36.353Z,29.80
2019-02-23T15:16:23.036Z,29.00
2019-02-23T15:19:05.223Z,28.00
2019-02-23T15:21:35.280Z,30.00
2019-02-23T15:24:23.838Z,29.30
2019-02-23T15:26:56.664Z,28.50
2019-02-23T15:29:49.706Z,31.00
2019-02-23T15:32:53.293Z,31.80
2019-02-23T15:35:29.248Z,31.80
2019-02-23T15:38:20.015Z,32.60
2019-02-23T15:41:12.796Z,31.20
2019-02-23T15:43:47.770Z,32.70
2019-02-23T15:46:35.505Z,32.60
2019-02-23T15:49:11.633Z,33.20
2019-02-23T15:51:38.112Z,32.70
2019-02-23T15:54:04.442Z,32.90
2019-02-23T15:56:30.928Z,33.10
2019-02-23T15:58:57.240Z,32.90
2019-02-23T16:01:23.526Z,32.90
2019-02-23T16:03:49.804Z,33.10
2019-02-23T16:06:16.099Z,33.30
2019-02-23T16:08:42.497Z,34.30
2019-02-23T16:11:08.855Z,34.40
2019-02-23T16:13:35.127Z,34.40
2019-02-23T16:16:01.388Z,34.40
2019-02-23T16:18:27.779Z,34.30
2019-02-23T16:20:54.194Z,34.50
2019-02-23T16:23:20.537Z,34.30
2019-02-23T16:25:46.847Z,34.60
2019-02-23T16:28:13.232Z,34.80
2019-02-23T16:30:39.491Z,34.80
2019-02-23T16:33:05.743Z,34.40
2019-02-23T16:35:32.168Z,35.10
2019-02-23T16:37:58.427Z,35.00
2019-02-23T16:40:24.712Z,34.90
2019-02-23T16:42:51.104Z,35.50
2019-02-23T16:45:17.382Z,36.40
2019-02-23T16:47:43.758Z,36.70
2019-02-23T16:50:10.107Z,36.80
2019-02-23T16:52:36.439Z,36.70
2019-02-23T16:55:03.048Z,36.70
2019-02-23T16:57:29.381Z,37.00
2019-02-23T16:59:55.653Z,36.90
2019-02-23T17:02:21.960Z,37.20
2019-02-23T17:04:53.466Z,37.00
2019-02-23T17:07:16.414Z,37.20
2019-02-23T17:09:42.682Z,37.40
2019-02-23T17:12:08.915Z,37.50
2019-02-23T17:14:35.213Z,37.90
2019-02-23T17:17:01.527Z,38.10
2019-02-23T17:19:27.839Z,38.40
2019-02-23T17:21:54.104Z,38.70
2019-02-23T17:24:20.437Z,38.80
2019-02-23T17:26:46.770Z,39.00
2019-02-23T17:29:13.028Z,39.20
2019-02-23T17:31:39.299Z,39.60
2019-02-23T17:34:05.717Z,40.00
2019-02-23T17:36:32.026Z,40.20
2019-02-23T17:38:58.742Z,40.50
2019-02-23T17:41:26.018Z,41.00
2019-02-23T17:43:54.169Z,41.50
2019-02-23T17:46:20.443Z,42.10
2019-02-23T17:48:46.701Z,42.30
2019-02-23T17:51:13.496Z,42.50
2019-02-23T17:53:39.760Z,42.50
2019-02-23T17:56:12.178Z,42.70
2019-02-23T17:58:36.312Z,42.70
2019-02-23T18:01:04.092Z,42.60
2019-02-23T18:03:31.308Z,42.80
2019-02-23T18:05:57.697Z,43.20
2019-02-23T18:08:25.482Z,43.50
2019-02-23T18:10:51.736Z,44.30
2019-02-23T18:13:18.240Z,44.00
2019-02-23T18:15:44.663Z,43.60
2019-02-23T18:18:11.289Z,43.60
2019-02-23T18:20:37.557Z,43.00
2019-02-23T18:23:04.889Z,43.30
2019-02-23T18:25:31.597Z,43.70
2019-02-23T18:27:57.887Z,43.70
2019-02-23T18:30:24.236Z,44.00
2019-02-23T18:32:52.248Z,44.50
2019-02-23T18:35:19.730Z,44.60
2019-02-23T18:37:46.284Z,44.90
2019-02-23T18:40:12.563Z,45.20
2019-02-23T18:42:39.999Z,45.50
2019-02-23T18:45:28.450Z,45.80
2019-02-23T18:47:55.560Z,46.00
2019-02-23T18:50:21.867Z,45.70
2019-02-23T18:52:49.898Z,45.90
2019-02-23T18:55:16.989Z,46.00
2019-02-23T18:57:43.265Z,45.90
2019-02-23T19:00:11.284Z,46.10
2019-02-23T19:02:38.559Z,46.40
2019-02-23T19:05:08.547Z,47.10
2019-02-23T19:07:36.467Z,47.20
2019-02-23T19:10:06.583Z,47.40
2019-02-23T19:12:55.582Z,46.90
2019-02-23T19:15:22.343Z,47.60
2019-02-23T19:17:49.069Z,47.70
2019-02-23T19:20:15.468Z,47.50
2019-02-23T19:22:50.295Z,47.90
2019-02-23T19:25:18.043Z,47.70
2019-02-23T19:27:45.960Z,48.30
2019-02-23T19:30:14.052Z,48.70
2019-02-23T19:32:40.345Z,50.00
2019-02-23T19:35:07.823Z,50.00
2019-02-23T19:37:35.092Z,49.80
2019-02-23T19:40:02.424Z,50.10
2019-02-23T19:42:28.739Z,50.30
2019-02-23T19:44:55.030Z,50.20
2019-02-23T19:47:21.428Z,50.40
2019-02-23T19:49:47.755Z,51.10
2019-02-23T19:52:15.933Z,50.80
2019-02-23T19:54:42.323Z,50.20
2019-02-23T19:57:08.622Z,50.60
2019-02-23T19:59:34.984Z,50.90
2019-02-23T20:02:01.478Z,51.30
2019-02-23T20:04:27.944Z,51.50
2019-02-23T20:06:54.212Z,51.60
2019-02-23T20:09:20.531Z,51.60
2019-02-23T20:11:46.762Z,51.80
2019-02-23T20:14:13.033Z,51.60
2019-02-23T20:16:39.326Z,51.80
2019-02-23T20:19:05.599Z,51.60
2019-02-23T20:21:31.988Z,52.00
2019-02-23T20:23:58.300Z,51.70
2019-02-23T20:26:29.288Z,51.70
2019-02-23T20:28:55.567Z,51.70
2019-02-23T20:31:21.959Z,51.60
2019-02-23T20:33:48.247Z,51.90
2019-02-23T20:36:14.675Z,51.50
2019-02-23T20:38:40.948Z,51.60
2019-02-23T20:41:07.441Z,51.80
2019-02-23T20:43:33.809Z,52.50
2019-02-23T20:46:00.179Z,52.60
2019-02-23T20:48:26.452Z,52.80
2019-02-23T20:50:52.824Z,52.90
2019-02-23T20:53:19.182Z,52.90
2019-02-23T20:55:45.473Z,52.80
2019-02-23T20:58:11.749Z,52.80
2019-02-23T21:00:38.289Z,52.90
2019-02-23T21:03:04.535Z,52.90
2019-02-23T21:05:30.845Z,53.20
2019-02-23T21:07:57.223Z,53.60
2019-02-23T21:10:23.602Z,53.50
2019-02-23T21:12:50.002Z,53.80
2019-02-23T21:15:16.405Z,53.70
2019-02-23T21:17:42.740Z,53.90
2019-02-23T21:20:09.827Z,54.10
2019-02-23T21:22:36.276Z,54.20
2019-02-23T21:25:04.561Z,54.60
2019-02-23T21:27:30.846Z,54.70
2019-02-23T21:29:57.242Z,55.00
2019-02-23T21:32:23.515Z,55.00
2019-02-23T21:34:49.832Z,55.00
2019-02-23T21:37:16.121Z,55.00
2019-02-23T21:39:42.484Z,55.10
2019-02-23T21:42:08.797Z,55.10
2019-02-23T21:44:36.028Z,55.10
2019-02-23T21:47:02.410Z,55.10
2019-02-23T21:49:28.895Z,55.10
2019-02-23T21:51:55.156Z,55.20
2019-02-23T21:54:21.473Z,55.50
2019-02-23T21:56:47.778Z,55.50
2019-02-23T21:59:14.156Z,55.70
2019-02-23T22:01:40.451Z,56.00
2019-02-23T22:04:06.703Z,56.20
2019-02-23T22:06:33.004Z,56.30
2019-02-23T22:08:59.308Z,56.50
2019-02-23T22:11:25.613Z,57.00
2019-02-23T22:13:51.963Z,56.70
2019-02-23T22:16:18.380Z,56.70
2019-02-23T22:18:44.632Z,57.00
2019-02-23T22:21:10.893Z,56.80
2019-02-23T22:23:37.164Z,56.80
2019-02-23T22:26:03.566Z,56.90
2019-02-23T22:28:29.917Z,56.90
2019-02-23T22:30:56.208Z,57.30
2019-02-23T22:33:22.465Z,57.10
2019-02-23T22:35:49.037Z,56.90
2019-02-23T22:38:15.696Z,57.20
2019-02-23T22:40:42.065Z,57.60
2019-02-23T22:43:08.431Z,58.00
2019-02-23T22:45:34.720Z,58.20
2019-02-23T22:48:01.092Z,58.40
2019-02-23T22:50:27.407Z,57.90
2019-02-23T22:52:53.685Z,57.80
2019-02-23T22:55:20.076Z,57.70
2019-02-23T22:57:46.335Z,57.60
2019-02-23T23:00:14.664Z,57.60
2019-02-23T23:02:41.227Z,57.70
2019-02-23T23:05:07.723Z,58.00
2019-02-23T23:07:34.012Z,57.90
2019-02-23T23:10:00.383Z,58.10
2019-02-23T23:12:26.656Z,57.90
2019-02-23T23:14:52.926Z,58.00
2019-02-23T23:17:19.312Z,58.10
2019-02-23T23:19:46.507Z,57.90
2019-02-23T23:22:12.907Z,58.10
2019-02-23T23:24:39.169Z,58.50
2019-02-23T23:27:05.473Z,59.20
2019-02-23T23:29:31.836Z,59.30
2019-02-23T23:31:58.128Z,58.40
2019-02-23T23:34:24.437Z,58.80
2019-02-23T23:36:50.926Z,59.50
2019-02-23T23:39:17.620Z,59.50
2019-02-23T23:41:43.888Z,60.00
2019-02-23T23:44:10.156Z,60.70
2019-02-23T23:46:36.446Z,61.20
2019-02-23T23:49:02.719Z,60.80
2019-02-23T23:51:29.036Z,61.50
2019-02-23T23:53:55.414Z,61.90
2019-02-23T23:56:21.660Z,62.00
2019-02-23T23:58:47.957Z,62.00
